Bewolking Meer informatie Parkstad Weather Satellite


Neerslag Meer informatie Parkstad Rain Snow Radar


Onweersbuien Meer informatie Parkstad Lighntning


24/7 Weercamera Meer informatie Parkstad Weathercam


Natuurbrandrisico
CBI






Het weer levert geen direct gevaar op in Parkstad.    Er zijn geen waarschuwingen afgegeven voor Parkstad (045)

METAR rapporten vliegvelden

   
EHBK - Beek Nederland
Gewijzigd: 11-12-2018 23:25
Gedeeltelijk bewolkt  
Gedeeltelijk bewolkt  
   Wind: varieert 3.7 km/h
Wind: varieert 3.7 km/h
Temperatuur: 3°C
Dauwpunt: 2°C
Vochtigheid: 93%
Barometer: 1024 hPa
Satelliet beelden: Gedeeltelijk bewolkt
Zicht: meer dan 10 km
Bewolking: Gedeeltelijk bewolkt
EHBK 112225Z AUTO VRB02KT 9999 NSC 03/02 Q1024
EHBK - Maastricht Nederland
Gewijzigd: 11-12-2018 23:25
Gedeeltelijk bewolkt  
Gedeeltelijk bewolkt  
   Wind: varieert 3.7 km/h
Wind: varieert 3.7 km/h
Temperatuur: 3°C
Dauwpunt: 2°C
Vochtigheid: 93%
Barometer: 1024 hPa
Satelliet beelden: Gedeeltelijk bewolkt
Zicht: meer dan 10 km
Bewolking: Gedeeltelijk bewolkt
EHBK 112225Z AUTO VRB02KT 9999 NSC 03/02 Q1024
EBLG - Liège België
Gewijzigd: 11-12-2018 23:20
Gedeeltelijk bewolkt  
Gedeeltelijk bewolkt  
   Wind: Westen 3.7 km/h
Wind: Westen 3.7 km/h
Temperatuur: 3°C
Dauwpunt: 1°C
Vochtigheid: 87%
Barometer: 1024 hPa
Satelliet beelden: Gedeeltelijk bewolkt
Zicht: meer dan 10 km
Bewolking: Gedeeltelijk bewolkt 671 m
EBLG 112220Z 27002KT 9999 SCT022 03/01 Q1024 NOSIG
EDDK - Köln/Bonn Duitsland
Gewijzigd: 11-12-2018 23:20
Helder  
Helder  
   Wind: varieert 1.9 km/h
Wind: varieert 1.9 km/h
Temperatuur: 1°C
Dauwpunt: 0°C
Vochtigheid: 93%
Barometer: 1024 hPa
Zicht: meer dan 10 km
Bewolking: Helder
EDDK 112220Z VRB01KT CAVOK 01/00 Q1024 NOSIG
EDDL - Düsseldorf Duitsland
Gewijzigd: 11-12-2018 23:20
Helder  
Helder  
   Wind: WNW 3.7 km/h
Wind: WNW 3.7 km/h
Temperatuur: 1°C
Dauwpunt: 0°C
Vochtigheid: 93%
Barometer: 1024 hPa
Zicht: meer dan 10 km
Bewolking: Helder
EDDL 112220Z 29002KT CAVOK 01/M00 Q1024 NOSIG
EHEH - Eindhoven Nederland
Gewijzigd: 11-12-2018 23:34
Mist, Helder  
Mist, Helder  
   Wind: Windstil
Wind: Windstil
Temperatuur: 1°C
Dauwpunt: 1°C
Vochtigheid: 100%
Barometer: 1025 hPa
Satelliet beelden: Helder
Zicht: 1 km
Bewolking: Helder
EHEH 112234Z AUTO 00000KT 0500 FG NCD 01/01 Q1025 RED
ELLX - Luxemburg Luxemburg
Gewijzigd: 11-12-2018 23:20
Helder  
Helder  
   Wind: Noorden 5.6 km/h
Wind: Noorden 5.6 km/h
Temperatuur: -1°C
Voelt als: -3°C
Dauwpunt: -1°C
Vochtigheid: 100%
Barometer: 1023 hPa
Zicht: meer dan 10 km
Bewolking: Helder
ELLX 112220Z 36003KT CAVOK M01/M01 Q1023 NOSIG
EGLL - London England
Gewijzigd: 11-12-2018 23:20
Grotendeels bewolkt  
Grotendeels bewolkt  
   Wind: Oosten 13 km/h
Wind: Oosten 13 km/h
Temperatuur: 6°C
Voelt als: 3°C
Dauwpunt: 5°C
Vochtigheid: 93%
Barometer: 1022 hPa
Satelliet beelden: Grotendeels bewolkt
Zicht: 8 km
Bewolking: Licht bewolkt 732 m,
Grotendeels bewolkt 1036 m
EGLL 112220Z AUTO 10007KT 8000 FEW024 BKN034 06/05 Q1022 NOSIG
EBAW - Antwerpen België
Gewijzigd: 11-12-2018 23:20
Helder  
Helder  
   Wind: Oosten 5.6 km/h
Wind: Oosten 5.6 km/h
Temperatuur: 3°C
Voelt als: 2°C
Dauwpunt: 2°C
Vochtigheid: 93%
Barometer: 1025 hPa
Zicht: meer dan 10 km
Bewolking: Helder
EBAW 112220Z 09003KT CAVOK 03/02 Q1025 NOSIG
EBOS - Oostende België
Gewijzigd: 11-12-2018 23:20
Grotendeels bewolkt  
Grotendeels bewolkt  
   Wind: OZO 7.4 km/h
Wind: OZO 7.4 km/h
Temperatuur: 4°C
Voelt als: 2°C
Dauwpunt: 2°C
Vochtigheid: 87%
Barometer: 1025 hPa
Satelliet beelden: Grotendeels bewolkt
Zicht: meer dan 10 km
Bewolking: Grotendeels bewolkt 1219 m
EBOS 112220Z 12004KT 090V150 9999 BKN040 04/02 Q1025 NOSIG
LEAL - La Nucia Spanje
Gewijzigd: 11-12-2018 23:30
Helder  
Helder  
   Wind: ZZW 14.8 km/h
Wind: ZZW 14.8 km/h
Temperatuur: 10°C
Voelt als: 8°C
Dauwpunt: 8°C
Vochtigheid: 88%
Barometer: 1020 hPa
Zicht: meer dan 10 km
Bewolking: Helder
LEAL 112230Z 21008KT CAVOK 10/08 Q1020 NOSIG
TNCA - Oranjestad Aruba
Gewijzigd: 11-12-2018 23:00
Licht bewolkt  
Licht bewolkt  
   Wind: Oosten 27.8 km/h
Wind: Oosten 27.8 km/h
Temperatuur: 28°C
Gevoelstemperatuur: 31°C
Dauwpunt: 23°C
Vochtigheid: 74%
Barometer: 1013 hPa
Satelliet beelden: Licht bewolkt
Zicht: meer dan 10 km
Bewolking: Licht bewolkt 610 m
TNCA 112200Z 09015KT 9999 FEW020 28/23 Q1013 NOSIG
TNCC - Willemstad Curacao
Gewijzigd: 11-12-2018 23:00
Gedeeltelijk bewolkt  
Gedeeltelijk bewolkt  
   Wind: OZO 22.2 km/h
Wind: OZO 22.2 km/h
Temperatuur: 27°C
Gevoelstemperatuur: 29°C
Dauwpunt: 22°C
Vochtigheid: 74%
Barometer: 1014 hPa
Satelliet beelden: Gedeeltelijk bewolkt
Zicht: meer dan 10 km
Bewolking: Gedeeltelijk bewolkt
TNCC 112200Z AUTO 12012KT 9999 NSC 27/22 Q1014
MTPP - Port au Prince Haitië
Gewijzigd: 11-12-2018 22:54
Licht bewolkt  
Licht bewolkt  
   Wind: NW 7.4 km/h
Wind: NW 7.4 km/h
Temperatuur: 28°C
Gevoelstemperatuur: 30°C
Dauwpunt: 21°C
Vochtigheid: 66%
Barometer: 1015 hPa
Satelliet beelden: Licht bewolkt
Zicht: 9 km
Bewolking: Licht bewolkt 732 m
MTPP 112154Z 31004KT 9000 FEW024 28/21 Q1015 A2998 NOSIG
ENVA - Trondheim Noorwegen
Gewijzigd: 11-12-2018 22:50
Grotendeels bewolkt  
Grotendeels bewolkt  
   Wind: OZO 11.1 km/h
Wind: OZO 11.1 km/h
Temperatuur: -3°C
Voelt als: -7°C
Dauwpunt: -3°C
Vochtigheid: 100%
Barometer: 1029 hPa
Satelliet beelden: Grotendeels bewolkt
Zicht: meer dan 10 km
Bewolking: Licht bewolkt 61 m,
Grotendeels bewolkt 457 m
ENVA 112150Z 11006KT 9999 FEW002 BKN015 M03/M03 Q1029 RMK WIND 670FT 15007KT
ENBO - Bodø Noorwegen
Gewijzigd: 11-12-2018 23:20
Grotendeels bewolkt  
Grotendeels bewolkt  
   Wind: Oosten 22.2 km/h
Wind: Oosten 22.2 km/h
Temperatuur: -1°C
Voelt als: -7°C
Dauwpunt: -1°C
Vochtigheid: 100%
Barometer: 1028 hPa
Satelliet beelden: Grotendeels bewolkt
Zicht: meer dan 10 km
Bewolking: Licht bewolkt 244 m,
Grotendeels bewolkt 1372 m
ENBO 112220Z 08012KT 9999 FEW008 BKN045 M01/M01 Q1028 NOSIG
ETNG - Geilenkirchen Duitsland
Gewijzigd: 11-12-2018 22:50
Helder  
Helder  
   Wind: Westen 3.7 km/h
Wind: Westen 3.7 km/h
Temperatuur: 3°C
Dauwpunt: 2°C
Vochtigheid: 93%
Barometer: 1024 hPa
Zicht: meer dan 10 km
Bewolking: Helder
ETNG 112150Z 26002KT CAVOK 03/02 Q1024
 

Script ontwikkeld door  Saratoga-weather.org Aangepast voor de template door  Weerstation Leuven

U vindt ons ook hier:

Het Weer Aktueel

WOW Nederland KNMI

Vereniging voor Weerkunde en Klimatologie

UK Met Office Weather Observation Website (WOW)

WeatherCloud

Weather Underground

Awekas

Weatherlink IP

HAMweather, WeatherForYou, PWS Weather

Citizen Weather Observer Program (CWOP)

Apparatuur in gebruik:

Hardwareleverancier
Weerhuisje

Weerstation
Vantage Pro2+ UV

Weercomputer's
alix3d2 & wl330n

Weerprogramma's
Smartbedded

Satelliet NOAA's
WRX137 & KX137

Satelliet Eumetsat
Ayecka SR1 & Triax

Bliksemdetectie
Boltek StormTracker

Webleverancier
F-Service

Weerhuisje

Vantage Pro2+ UV

alix3d2 & wl330n

Smartbedded

WRX137 & KX137

Ayecka SR1 & Triax

Boltek StormTracker

F-Service